Flight Track Log - Related Links

Times and Time Zones

All times are in EDT time to prevent confusion due to time zone crossing. See the FLG3642 flight status page for this flight to view local times or setup timezone preferences in your user account.

Time Position Orientation Groundspeed Altitude Reporting Facility
EDT Latitude Longitude Course Direction KTS MPH feet Rate Location/Type
Thu 09:26:39 AM 33.6500 -84.4667 North 153 176 2,500  Level Atlanta TRACON
Thu 09:27:39 AM 33.6667 -84.5333 287° West 245 282 3,800 2,300 Climbing Atlanta TRACON
Thu 09:28:39 AM 33.7167 -84.5833 320° Northwest 259 298 7,100 2,750 Climbing Atlanta TRACON
Thu 09:29:00 AM 33.9452 -84.2667 North  Level FlightAware Approximate
Thu 09:29:39 AM 33.8000 -84.5833 360° North 291 335 9,300  Level Atlanta TRACON
Thu 09:30:00 AM 34.0717 -84.2667 North  Level FlightAware Approximate
Thu 09:30:33 AM 33.8500 -84.5167 48° Northeast 331 381 10,700  Level Atlanta TRACON
Thu 09:31:00 AM 34.1981 -84.2667 North  Level FlightAware Approximate
Thu 09:31:41 AM 33.9356 -84.4094 46° Northeast 381 438 12,400  Level Atlanta Center
Thu 09:32:41 AM 34.0339 -84.3672 20° North 372 428 14,300 1,900 Climbing Atlanta Center
Thu 09:33:41 AM 34.1278 -84.3375 15° North 359 413 16,200 1,700 Climbing Atlanta Center
Thu 09:34:41 AM 34.2386 -84.3000 16° North 382 440 17,700 1,250 Climbing Atlanta Center
Thu 09:35:41 AM 34.3450 -84.2703 13° North 382 440 18,700 1,150 Climbing Atlanta Center
Thu 09:36:41 AM 34.4558 -84.2428 12° North 394 453 20,000 1,150 Climbing Atlanta Center
Thu 09:37:41 AM 34.5683 -84.2178 10° North 394 453 21,000 1,000 Climbing Atlanta Center
Thu 09:38:41 AM 34.6811 -84.1928 10° North 408 470 22,000 1,000 Climbing Atlanta Center
Thu 09:39:41 AM 34.7958 -84.1653 11° North 408 470 23,000 1,050 Climbing Atlanta Center
Thu 09:40:41 AM 34.9128 -84.1375 11° North 414 476 24,100 900 Climbing Atlanta Center
Thu 09:41:41 AM 35.0278 -84.1097 11° North 414 476 24,800 750 Climbing Atlanta Center
Thu 09:42:41 AM 35.1444 -84.0794 12° North 414 476 25,600 700 Climbing Atlanta Center
Thu 09:43:41 AM 35.2633 -84.0514 11° North 420 483 26,200 650 Climbing Atlanta Center
Thu 09:44:41 AM 35.3825 -84.0208 12° North 430 495 26,900 600 Climbing Atlanta Center
Thu 09:45:41 AM 35.5014 -83.9953 10° North 430 495 27,400 500 Climbing Atlanta Center
Thu 09:46:41 AM 35.6203 -83.9647 12° North 430 495 27,900 500 Climbing Atlanta Center
Thu 09:47:41 AM 35.7433 -83.9364 11° North 430 495 28,400 500 Climbing Atlanta Center
Thu 09:48:41 AM 35.8642 -83.9081 11° North 435 501 28,900 550 Climbing Atlanta Center
Thu 09:49:41 AM 35.9808 -83.8489 22° Northeast 440 506 29,500 538 Climbing Atlanta Center
Thu 09:51:17 AM 36.1650 -83.7297 28° Northeast 473 544 30,300 494 Climbing Indianapolis Center
Thu 09:52:19 AM 36.2811 -83.6569 27° Northeast 471 542 30,800 339 Climbing Indianapolis Center
Thu 09:53:21 AM 36.3983 -83.5811 28° Northeast 474 545 31,000 97 Climbing Indianapolis Center
Thu 09:54:23 AM 36.5175 -83.5061 27° Northeast 476 548 31,000  Level Indianapolis Center
Thu 09:55:25 AM 36.6594 -83.4164 27° Northeast 485 558 31,000  Level Indianapolis Center
Thu 09:56:27 AM 36.7747 -83.3250 32° Northeast 493 567 31,000  Level Indianapolis Center
Thu 09:57:29 AM 36.8525 -83.1667 58° Northeast 529 609 31,000  Level Indianapolis Center
Thu 09:58:32 AM 36.9292 -83.0053 59° Northeast 533 613 31,000  Level Indianapolis Center
Thu 09:59:34 AM 37.0089 -82.8356 59° Northeast 534 615 31,000  Level Indianapolis Center
Thu 10:00:36 AM 37.0833 -82.6742 60° Northeast 531 611 31,000  Level Indianapolis Center
Thu 10:01:38 AM 37.1575 -82.5153 60° Northeast 526 605 31,000  Level Indianapolis Center
Thu 10:02:40 AM 37.2308 -82.3556 60° Northeast 528 608 31,000  Level Indianapolis Center
Thu 10:03:42 AM 37.3161 -82.1689 60° Northeast 527 606 31,000  Level Indianapolis Center
Thu 10:04:44 AM 37.3881 -82.0083 61° Northeast 527 606 31,000  Level Indianapolis Center
Thu 10:05:46 AM 37.4611 -81.8481 60° Northeast 526 605 31,000  Level Indianapolis Center
Thu 10:07:00 AM 37.5304 -81.6838 62° Northeast  Level FlightAware Approximate
Thu 10:07:50 AM 37.6050 -81.5272 62° Northeast 525 604 31,000  Level Indianapolis Center
Thu 10:08:52 AM 37.6803 -81.3550 61° Northeast 525 604 31,000  Level Indianapolis Center
Thu 10:09:54 AM 37.7497 -81.1978 61° Northeast 525 604 31,000  Level Indianapolis Center
Thu 10:10:14 AM 37.7733 -81.1461 60° Northeast 542 624 31,000  Level Washington Center
Thu 10:11:14 AM 37.8672 -81.0083 49° Northeast 525 604 31,000  Level Washington Center
Thu 10:12:14 AM 37.9592 -80.8700 50° Northeast 512 589 31,000  Level Washington Center
Thu 10:13:14 AM 38.0544 -80.7369 48° Northeast 507 583 31,000  Level Washington Center
Thu 10:14:15 AM 38.1458 -80.6033 49° Northeast 507 583 31,000  Level Washington Center
Thu 10:15:14 AM 38.2500 -80.4542 48° Northeast 507 583 31,000  Level Washington Center
Thu 10:16:14 AM 38.3450 -80.3175 48° Northeast 507 583 31,000  Level Washington Center
Thu 10:17:14 AM 38.4358 -80.1828 49° Northeast 507 583 31,000  Level Washington Center
Thu 10:18:14 AM 38.5264 -80.0503 49° Northeast 507 583 31,000  Level Washington Center
Thu 10:19:14 AM 38.6189 -79.9125 49° Northeast 507 583 31,000 -350 Level Washington Center
Thu 10:20:14 AM 38.7025 -79.7897 49° Northeast 507 583 30,300 -850 Descending Washington Center
Thu 10:21:14 AM 38.7969 -79.6486 49° Northeast 507 583 29,300 -650 Descending Washington Center
Thu 10:22:14 AM 38.8981 -79.4914 50° Northeast 517 595 29,000 -150 Descending Washington Center
Thu 10:23:14 AM 38.9900 -79.3519 50° Northeast 517 595 29,000  Level Washington Center
Thu 10:24:14 AM 39.0842 -79.2097 50° Northeast 512 589 29,000 -100 Level Washington Center
Thu 10:25:14 AM 39.1717 -79.0669 52° Northeast 512 589 28,800 -650 Descending Washington Center
Thu 10:26:14 AM 39.2408 -78.9067 61° Northeast 512 589 27,700 -1,050 Descending Washington Center
Thu 10:27:14 AM 39.3119 -78.7489 60° Northeast 507 583 26,700 -850 Descending Washington Center
Thu 10:28:14 AM 39.3803 -78.5933 60° Northeast 495 570 26,000 -850 Descending Washington Center
Thu 10:29:14 AM 39.4467 -78.4403 61° Northeast 495 570 25,000 -1,500 Descending Washington Center
Thu 10:30:14 AM 39.5147 -78.2869 60° Northeast 490 564 23,000 -2,050 Descending Washington Center
Thu 10:31:14 AM 39.5786 -78.1358 61° Northeast 485 558 20,900 -1,789 Descending Washington Center
Thu 10:33:05 AM 39.6814 -77.8983 61° Northeast 450 518 17,900 -1,860 Descending New York Center
Thu 10:34:05 AM 39.7553 -77.7789 51° Northeast 433 498 15,600 -1,475 Descending New York Center
Thu 10:35:03 AM 39.8319 -77.6811 44° Northeast 407 468 15,000 -555 Descending New York Center
Thu 10:36:04 AM 39.9172 -77.5758 43° Northeast 388 447 14,500 -885 Descending New York Center
Thu 10:37:05 AM 39.9917 -77.4772 45° Northeast 378 435 13,200 -1,488 Descending New York Center
Thu 10:38:05 AM 40.0614 -77.3864 45° Northeast 361 415 11,500 -1,525 Descending New York Center
Thu 10:39:03 AM 40.1267 -77.3028 44° Northeast 343 395 10,200 -1,576 Descending New York Center
Thu 10:40:03 AM 40.1531 -77.2022 71° East 291 335 8,400 -1,721 Descending New York Center
Thu 10:41:05 AM 40.1647 -77.1000 81° East 286 329 6,700 -1,700 Descending New York Center
Thu 10:42:03 AM 40.1722 -77.0000 84° East 275 316 5,000 -1,008 Descending New York Center
Thu 10:43:04 AM 40.1772 -76.9000 86° East 275 316 4,700 -148 Descending New York Center
Thu 10:44:05 AM 40.1839 -76.8108 84° East 275 316 4,700  Level New York Center

Login

Don't have an account? Register now (free) for customized features, flight alerts, and more!